sensor_id;sensor_type;location;lat;lon;timestamp;temperature;humidity
21493;DHT22;10908;50.690;4.400;2023-03-01T00:01:04;0.70;66.30
21493;DHT22;10908;50.690;4.400;2023-03-01T00:03:30;0.60;66.70
21493;DHT22;10908;50.690;4.400;2023-03-01T00:05:57;0.60;66.90
21493;DHT22;10908;50.690;4.400;2023-03-01T00:08:23;0.60;67.00
21493;DHT22;10908;50.690;4.400;2023-03-01T00:10:49;0.50;67.20
21493;DHT22;10908;50.690;4.400;2023-03-01T00:13:14;0.50;67.30
21493;DHT22;10908;50.690;4.400;2023-03-01T00:15:40;0.50;67.20
21493;DHT22;10908;50.690;4.400;2023-03-01T00:18:07;0.40;67.50
21493;DHT22;10908;50.690;4.400;2023-03-01T00:20:34;0.50;67.40
21493;DHT22;10908;50.690;4.400;2023-03-01T00:22:59;0.50;67.50
21493;DHT22;10908;50.690;4.400;2023-03-01T00:25:25;0.40;67.70
21493;DHT22;10908;50.690;4.400;2023-03-01T00:27:50;0.40;67.90
21493;DHT22;10908;50.690;4.400;2023-03-01T00:30:16;0.30;68.00
21493;DHT22;10908;50.690;4.400;2023-03-01T00:32:42;0.30;68.10
21493;DHT22;10908;50.690;4.400;2023-03-01T00:35:07;0.30;68.30
21493;DHT22;10908;50.690;4.400;2023-03-01T00:37:33;0.40;68.10
21493;DHT22;10908;50.690;4.400;2023-03-01T00:39:59;0.40;68.00
21493;DHT22;10908;50.690;4.400;2023-03-01T00:42:24;0.40;68.00
21493;DHT22;10908;50.690;4.400;2023-03-01T00:44:50;0.50;68.00
21493;DHT22;10908;50.690;4.400;2023-03-01T00:47:15;0.40;68.10
21493;DHT22;10908;50.690;4.400;2023-03-01T00:49:41;0.40;68.30
21493;DHT22;10908;50.690;4.400;2023-03-01T00:52:07;0.20;68.40
21493;DHT22;10908;50.690;4.400;2023-03-01T00:54:32;0.30;68.40
21493;DHT22;10908;50.690;4.400;2023-03-01T00:56:58;0.20;68.50
21493;DHT22;10908;50.690;4.400;2023-03-01T00:59:23;0.20;68.90
21493;DHT22;10908;50.690;4.400;2023-03-01T01:01:49;0.10;68.90
21493;DHT22;10908;50.690;4.400;2023-03-01T01:04:14;0.20;69.00
21493;DHT22;10908;50.690;4.400;2023-03-01T01:06:43;0.30;68.80
21493;DHT22;10908;50.690;4.400;2023-03-01T01:09:11;0.20;68.80
21493;DHT22;10908;50.690;4.400;2023-03-01T01:11:48;0.10;69.20
21493;DHT22;10908;50.690;4.400;2023-03-01T01:14:14;0.10;69.30
21493;DHT22;10908;50.690;4.400;2023-03-01T01:16:40;0.00;69.50
21493;DHT22;10908;50.690;4.400;2023-03-01T01:19:06;0.00;69.80
21493;DHT22;10908;50.690;4.400;2023-03-01T01:21:32;0.00;70.00
21493;DHT22;10908;50.690;4.400;2023-03-01T01:23:58;0.00;70.10
21493;DHT22;10908;50.690;4.400;2023-03-01T01:26:29;0.00;69.90
21493;DHT22;10908;50.690;4.400;2023-03-01T01:28:56;0.00;70.00
21493;DHT22;10908;50.690;4.400;2023-03-01T01:31:22;0.10;69.80
21493;DHT22;10908;50.690;4.400;2023-03-01T01:33:52;0.00;70.00
21493;DHT22;10908;50.690;4.400;2023-03-01T01:36:18;0.00;70.20
21493;DHT22;10908;50.690;4.400;2023-03-01T01:38:44;0.00;70.20
21493;DHT22;10908;50.690;4.400;2023-03-01T01:41:10;0.10;70.00
21493;DHT22;10908;50.690;4.400;2023-03-01T01:44:09;0.00;69.90
21493;DHT22;10908;50.690;4.400;2023-03-01T01:46:38;0.00;70.10
21493;DHT22;10908;50.690;4.400;2023-03-01T01:49:11;0.00;70.10
21493;DHT22;10908;50.690;4.400;2023-03-01T01:51:42;0.00;70.20
21493;DHT22;10908;50.690;4.400;2023-03-01T01:54:13;0.10;70.10
21493;DHT22;10908;50.690;4.400;2023-03-01T01:56:42;0.10;69.80
21493;DHT22;10908;50.690;4.400;2023-03-01T01:59:09;0.10;69.70
21493;DHT22;10908;50.690;4.400;2023-03-01T02:01:36;0.00;70.20
21493;DHT22;10908;50.690;4.400;2023-03-01T02:04:02;0.00;70.40
21493;DHT22;10908;50.690;4.400;2023-03-01T02:06:39;0.00;70.70
21493;DHT22;10908;50.690;4.400;2023-03-01T02:09:10;-3276.70;70.90
21493;DHT22;10908;50.690;4.400;2023-03-01T02:11:37;-3276.60;71.20
21493;DHT22;10908;50.690;4.400;2023-03-01T02:14:03;-3276.60;71.40
21493;DHT22;10908;50.690;4.400;2023-03-01T02:16:29;-3276.70;71.40
21493;DHT22;10908;50.690;4.400;2023-03-01T02:18:57;-3276.70;71.30
21493;DHT22;10908;50.690;4.400;2023-03-01T02:21:51;-3276.70;71.10
21493;DHT22;10908;50.690;4.400;2023-03-01T02:27:09;-3276.60;71.50
21493;DHT22;10908;50.690;4.400;2023-03-01T02:29:35;-3276.60;71.40
21493;DHT22;10908;50.690;4.400;2023-03-01T02:32:02;-3276.60;71.60
21493;DHT22;10908;50.690;4.400;2023-03-01T02:34:31;-3276.70;71.30
21493;DHT22;10908;50.690;4.400;2023-03-01T02:37:01;-3276.60;71.40
21493;DHT22;10908;50.690;4.400;2023-03-01T02:39:42;-3276.50;71.70
21493;DHT22;10908;50.690;4.400;2023-03-01T02:42:13;-3276.50;71.90
21493;DHT22;10908;50.690;4.400;2023-03-01T02:44:39;-3276.40;72.10
21493;DHT22;10908;50.690;4.400;2023-03-01T02:47:05;-3276.40;72.30
21493;DHT22;10908;50.690;4.400;2023-03-01T02:49:34;-3276.30;72.40
21493;DHT22;10908;50.690;4.400;2023-03-01T02:57:33;-3276.30;72.70
21493;DHT22;10908;50.690;4.400;2023-03-01T03:00:03;-3276.30;72.80
21493;DHT22;10908;50.690;4.400;2023-03-01T03:02:34;-3276.30;72.90
21493;DHT22;10908;50.690;4.400;2023-03-01T03:05:10;-3276.40;72.70
21493;DHT22;10908;50.690;4.400;2023-03-01T03:07:38;-3276.30;72.60
21493;DHT22;10908;50.690;4.400;2023-03-01T03:10:07;-3276.40;72.60
21493;DHT22;10908;50.690;4.400;2023-03-01T03:12:33;-3276.20;72.80
21493;DHT22;10908;50.690;4.400;2023-03-01T03:14:58;-3276.20;73.20
21493;DHT22;10908;50.690;4.400;2023-03-01T03:17:24;-3276.10;73.40
21493;DHT22;10908;50.690;4.400;2023-03-01T03:19:50;-3276.10;73.50
21493;DHT22;10908;50.690;4.400;2023-03-01T03:22:15;-3276.10;73.50
21493;DHT22;10908;50.690;4.400;2023-03-01T03:24:41;-3276.20;73.40
21493;DHT22;10908;50.690;4.400;2023-03-01T03:27:07;-3276.20;73.30
21493;DHT22;10908;50.690;4.400;2023-03-01T03:29:33;-3276.20;73.20
21493;DHT22;10908;50.690;4.400;2023-03-01T03:31:59;-3276.20;73.40
21493;DHT22;10908;50.690;4.400;2023-03-01T03:34:25;-3276.10;73.40
21493;DHT22;10908;50.690;4.400;2023-03-01T03:36:54;-3276.10;73.50
21493;DHT22;10908;50.690;4.400;2023-03-01T03:39:25;-3276.10;73.50
21493;DHT22;10908;50.690;4.400;2023-03-01T03:41:52;-3276.00;73.60
21493;DHT22;10908;50.690;4.400;2023-03-01T03:44:19;-3276.00;73.80
21493;DHT22;10908;50.690;4.400;2023-03-01T03:46:44;-3276.10;73.90
21493;DHT22;10908;50.690;4.400;2023-03-01T03:49:10;-3276.00;73.90
21493;DHT22;10908;50.690;4.400;2023-03-01T03:51:36;-3276.00;74.10
21493;DHT22;10908;50.690;4.400;2023-03-01T03:54:01;-3276.00;74.10
21493;DHT22;10908;50.690;4.400;2023-03-01T03:56:27;-3276.00;74.40
21493;DHT22;10908;50.690;4.400;2023-03-01T03:58:53;-3276.00;74.50
21493;DHT22;10908;50.690;4.400;2023-03-01T04:01:19;-3276.00;74.40
21493;DHT22;10908;50.690;4.400;2023-03-01T04:03:44;-3276.10;74.20
21493;DHT22;10908;50.690;4.400;2023-03-01T04:06:14;-3276.10;74.10
21493;DHT22;10908;50.690;4.400;2023-03-01T04:08:40;-3276.10;74.00
21493;DHT22;10908;50.690;4.400;2023-03-01T04:11:06;-3276.10;73.90
21493;DHT22;10908;50.690;4.400;2023-03-01T04:13:53;-3276.20;74.00
21493;DHT22;10908;50.690;4.400;2023-03-01T04:16:18;-3276.10;73.80
21493;DHT22;10908;50.690;4.400;2023-03-01T04:18:44;-3276.10;74.00
21493;DHT22;10908;50.690;4.400;2023-03-01T04:21:10;-3276.10;74.10
21493;DHT22;10908;50.690;4.400;2023-03-01T04:23:37;-3276.00;73.90
21493;DHT22;10908;50.690;4.400;2023-03-01T04:26:03;-3276.00;74.10
21493;DHT22;10908;50.690;4.400;2023-03-01T04:28:31;-3276.00;74.40
21493;DHT22;10908;50.690;4.400;2023-03-01T04:31:05;-3276.00;74.20
21493;DHT22;10908;50.690;4.400;2023-03-01T04:33:54;-3276.00;74.30
21493;DHT22;10908;50.690;4.400;2023-03-01T04:36:25;-3276.00;74.30
21493;DHT22;10908;50.690;4.400;2023-03-01T04:38:51;-3275.90;74.50
21493;DHT22;10908;50.690;4.400;2023-03-01T04:41:19;-3275.80;74.80
21493;DHT22;10908;50.690;4.400;2023-03-01T04:43:45;-3275.80;74.90
21493;DHT22;10908;50.690;4.400;2023-03-01T04:46:13;-3275.80;74.90
21493;DHT22;10908;50.690;4.400;2023-03-01T04:48:40;-3275.70;75.10
21493;DHT22;10908;50.690;4.400;2023-03-01T04:51:06;-3275.70;75.30
21493;DHT22;10908;50.690;4.400;2023-03-01T04:53:34;-3275.70;75.50
21493;DHT22;10908;50.690;4.400;2023-03-01T04:56:02;-3275.70;75.40
21493;DHT22;10908;50.690;4.400;2023-03-01T04:58:28;-3275.80;75.50
21493;DHT22;10908;50.690;4.400;2023-03-01T05:00:54;-3275.80;75.40
21493;DHT22;10908;50.690;4.400;2023-03-01T05:03:21;-3275.80;75.40
21493;DHT22;10908;50.690;4.400;2023-03-01T05:05:49;-3275.70;75.40
21493;DHT22;10908;50.690;4.400;2023-03-01T05:08:15;-3275.70;75.40
21493;DHT22;10908;50.690;4.400;2023-03-01T05:10:50;-3275.70;75.50
21493;DHT22;10908;50.690;4.400;2023-03-01T05:13:17;-3275.70;75.60
21493;DHT22;10908;50.690;4.400;2023-03-01T05:15:57;-3275.70;75.70
21493;DHT22;10908;50.690;4.400;2023-03-01T05:18:24;-3275.70;75.60
21493;DHT22;10908;50.690;4.400;2023-03-01T05:21:03;-3275.70;75.60
21493;DHT22;10908;50.690;4.400;2023-03-01T05:23:32;-3275.80;75.40
21493;DHT22;10908;50.690;4.400;2023-03-01T05:25:59;-3275.80;75.10
21493;DHT22;10908;50.690;4.400;2023-03-01T05:28:25;-3275.80;75.10
21493;DHT22;10908;50.690;4.400;2023-03-01T05:30:52;-3275.70;75.20
21493;DHT22;10908;50.690;4.400;2023-03-01T05:33:18;-3275.70;75.60
21493;DHT22;10908;50.690;4.400;2023-03-01T05:35:44;-3275.70;75.50
21493;DHT22;10908;50.690;4.400;2023-03-01T05:38:12;-3275.70;75.60
21493;DHT22;10908;50.690;4.400;2023-03-01T05:40:42;-3275.70;75.50
21493;DHT22;10908;50.690;4.400;2023-03-01T05:43:09;-3275.60;75.80
21493;DHT22;10908;50.690;4.400;2023-03-01T05:45:36;-3275.70;75.70
21493;DHT22;10908;50.690;4.400;2023-03-01T05:48:02;-3275.70;75.80
21493;DHT22;10908;50.690;4.400;2023-03-01T05:50:29;-3275.80;75.70
21493;DHT22;10908;50.690;4.400;2023-03-01T05:53:04;-3275.70;75.50
21493;DHT22;10908;50.690;4.400;2023-03-01T05:55:31;-3275.70;75.50
21493;DHT22;10908;50.690;4.400;2023-03-01T05:58:07;-3275.70;75.70
21493;DHT22;10908;50.690;4.400;2023-03-01T06:00:34;-3275.60;75.70
21493;DHT22;10908;50.690;4.400;2023-03-01T06:03:00;-3275.70;75.70
21493;DHT22;10908;50.690;4.400;2023-03-01T06:05:26;-3275.60;75.80
21493;DHT22;10908;50.690;4.400;2023-03-01T06:07:52;-3275.60;75.80
21493;DHT22;10908;50.690;4.400;2023-03-01T06:10:19;-3275.60;75.80
21493;DHT22;10908;50.690;4.400;2023-03-01T06:12:46;-3275.60;76.10
21493;DHT22;10908;50.690;4.400;2023-03-01T06:15:14;-3275.40;76.10
21493;DHT22;10908;50.690;4.400;2023-03-01T06:17:41;-3275.30;76.40
21493;DHT22;10908;50.690;4.400;2023-03-01T06:20:18;-3275.20;76.80
21493;DHT22;10908;50.690;4.400;2023-03-01T06:22:45;-3275.20;77.00
21493;DHT22;10908;50.690;4.400;2023-03-01T06:25:13;-3275.10;77.50
21493;DHT22;10908;50.690;4.400;2023-03-01T06:27:39;-3275.10;77.60
21493;DHT22;10908;50.690;4.400;2023-03-01T06:30:05;-3275.20;77.60
21493;DHT22;10908;50.690;4.400;2023-03-01T06:32:32;-3275.10;77.70
21493;DHT22;10908;50.690;4.400;2023-03-01T06:34:58;-3275.10;77.80
21493;DHT22;10908;50.690;4.400;2023-03-01T06:37:24;-3275.10;77.90
21493;DHT22;10908;50.690;4.400;2023-03-01T06:39:50;-3275.00;78.00
21493;DHT22;10908;50.690;4.400;2023-03-01T06:42:16;-3275.10;78.00
21493;DHT22;10908;50.690;4.400;2023-03-01T06:44:41;-3275.00;78.00
21493;DHT22;10908;50.690;4.400;2023-03-01T06:47:07;-3275.00;78.10
21493;DHT22;10908;50.690;4.400;2023-03-01T06:49:33;-3275.00;78.20
21493;DHT22;10908;50.690;4.400;2023-03-01T06:51:58;-3275.00;78.30
21493;DHT22;10908;50.690;4.400;2023-03-01T06:54:24;-3275.00;78.40
21493;DHT22;10908;50.690;4.400;2023-03-01T06:56:50;-3275.00;78.60
21493;DHT22;10908;50.690;4.400;2023-03-01T06:59:16;-3275.20;78.40
21493;DHT22;10908;50.690;4.400;2023-03-01T07:01:42;-3275.20;78.20
21493;DHT22;10908;50.690;4.400;2023-03-01T07:04:09;-3275.20;78.10
21493;DHT22;10908;50.690;4.400;2023-03-01T07:06:35;-3275.20;77.90
21493;DHT22;10908;50.690;4.400;2023-03-01T07:09:00;-3275.20;77.90
21493;DHT22;10908;50.690;4.400;2023-03-01T07:11:26;-3275.20;78.00
21493;DHT22;10908;50.690;4.400;2023-03-01T07:13:52;-3275.20;78.10
21493;DHT22;10908;50.690;4.400;2023-03-01T07:16:17;-3275.20;78.10
21493;DHT22;10908;50.690;4.400;2023-03-01T07:18:44;-3275.20;78.20
21493;DHT22;10908;50.690;4.400;2023-03-01T07:21:12;-3275.10;78.40
21493;DHT22;10908;50.690;4.400;2023-03-01T07:23:39;-3275.20;78.50
21493;DHT22;10908;50.690;4.400;2023-03-01T07:26:05;-3275.20;78.40
21493;DHT22;10908;50.690;4.400;2023-03-01T07:28:31;-3275.30;78.10
21493;DHT22;10908;50.690;4.400;2023-03-01T07:31:02;-3275.30;78.10
21493;DHT22;10908;50.690;4.400;2023-03-01T07:33:27;-3275.30;78.20
21493;DHT22;10908;50.690;4.400;2023-03-01T07:36:03;-3275.40;78.30
21493;DHT22;10908;50.690;4.400;2023-03-01T07:38:29;-3275.30;78.10
21493;DHT22;10908;50.690;4.400;2023-03-01T07:40:59;-3275.40;78.10
21493;DHT22;10908;50.690;4.400;2023-03-01T07:43:26;-3275.50;78.00
21493;DHT22;10908;50.690;4.400;2023-03-01T07:45:52;-3275.50;77.80
21493;DHT22;10908;50.690;4.400;2023-03-01T07:48:17;-3275.50;78.10
21493;DHT22;10908;50.690;4.400;2023-03-01T07:50:43;-3275.50;78.00
21493;DHT22;10908;50.690;4.400;2023-03-01T07:53:09;-3275.60;78.20
21493;DHT22;10908;50.690;4.400;2023-03-01T07:55:35;-3275.70;77.70
21493;DHT22;10908;50.690;4.400;2023-03-01T07:58:01;-3275.70;77.80
21493;DHT22;10908;50.690;4.400;2023-03-01T08:00:27;-3275.80;77.40
21493;DHT22;10908;50.690;4.400;2023-03-01T08:02:52;-3275.90;77.20
21493;DHT22;10908;50.690;4.400;2023-03-01T08:05:18;-3275.90;77.20
21493;DHT22;10908;50.690;4.400;2023-03-01T08:07:43;-3276.00;77.00
21493;DHT22;10908;50.690;4.400;2023-03-01T08:10:10;-3276.00;77.00
21493;DHT22;10908;50.690;4.400;2023-03-01T08:12:36;-3276.20;76.80
21493;DHT22;10908;50.690;4.400;2023-03-01T08:15:01;-3276.10;76.10
21493;DHT22;10908;50.690;4.400;2023-03-01T08:17:27;-3276.20;76.40
21493;DHT22;10908;50.690;4.400;2023-03-01T08:19:52;-3276.30;76.00
21493;DHT22;10908;50.690;4.400;2023-03-01T08:22:18;-3276.40;75.80
21493;DHT22;10908;50.690;4.400;2023-03-01T08:24:44;-3276.40;75.80
21493;DHT22;10908;50.690;4.400;2023-03-01T08:27:09;-3276.40;75.90
21493;DHT22;10908;50.690;4.400;2023-03-01T08:29:35;-3276.30;75.30
21493;DHT22;10908;50.690;4.400;2023-03-01T08:32:01;-3276.40;75.60
21493;DHT22;10908;50.690;4.400;2023-03-01T08:34:26;-3276.40;75.70
21493;DHT22;10908;50.690;4.400;2023-03-01T08:36:52;-3276.50;75.80
21493;DHT22;10908;50.690;4.400;2023-03-01T08:39:19;-3276.50;75.40
21493;DHT22;10908;50.690;4.400;2023-03-01T08:41:46;-3276.60;75.30
21493;DHT22;10908;50.690;4.400;2023-03-01T08:44:13;-3276.70;74.80
21493;DHT22;10908;50.690;4.400;2023-03-01T08:46:40;0.00;74.90
21493;DHT22;10908;50.690;4.400;2023-03-01T08:49:08;0.00;74.90
21493;DHT22;10908;50.690;4.400;2023-03-01T08:51:35;0.10;74.10
21493;DHT22;10908;50.690;4.400;2023-03-01T08:54:10;0.10;73.70
21493;DHT22;10908;50.690;4.400;2023-03-01T08:56:36;0.30;73.80
21493;DHT22;10908;50.690;4.400;2023-03-01T08:59:02;0.30;73.30
21493;DHT22;10908;50.690;4.400;2023-03-01T09:01:28;0.30;73.30
21493;DHT22;10908;50.690;4.400;2023-03-01T09:03:54;0.40;73.00
21493;DHT22;10908;50.690;4.400;2023-03-01T09:06:20;0.60;72.70
21493;DHT22;10908;50.690;4.400;2023-03-01T09:08:47;0.60;72.60
21493;DHT22;10908;50.690;4.400;2023-03-01T09:11:19;0.60;72.50
21493;DHT22;10908;50.690;4.400;2023-03-01T09:13:45;0.70;72.00
21493;DHT22;10908;50.690;4.400;2023-03-01T09:16:13;0.80;72.30
21493;DHT22;10908;50.690;4.400;2023-03-01T09:18:39;0.80;72.20
21493;DHT22;10908;50.690;4.400;2023-03-01T09:23:39;0.80;71.10
21493;DHT22;10908;50.690;4.400;2023-03-01T09:26:07;0.80;70.90
21493;DHT22;10908;50.690;4.400;2023-03-01T09:28:34;0.80;70.80
21493;DHT22;10908;50.690;4.400;2023-03-01T09:31:01;0.90;71.20
21493;DHT22;10908;50.690;4.400;2023-03-01T09:33:28;1.00;71.10
21493;DHT22;10908;50.690;4.400;2023-03-01T09:36:05;1.00;70.30
21493;DHT22;10908;50.690;4.400;2023-03-01T09:38:31;1.00;69.50
21493;DHT22;10908;50.690;4.400;2023-03-01T09:40:57;1.00;70.10
21493;DHT22;10908;50.690;4.400;2023-03-01T09:43:43;1.00;69.70
21493;DHT22;10908;50.690;4.400;2023-03-01T09:46:11;1.10;69.70
21493;DHT22;10908;50.690;4.400;2023-03-01T09:48:46;1.20;69.10
21493;DHT22;10908;50.690;4.400;2023-03-01T09:51:35;1.30;69.50
21493;DHT22;10908;50.690;4.400;2023-03-01T09:54:05;1.40;69.70
21493;DHT22;10908;50.690;4.400;2023-03-01T09:56:40;1.60;68.50
21493;DHT22;10908;50.690;4.400;2023-03-01T10:01:50;1.80;67.90
21493;DHT22;10908;50.690;4.400;2023-03-01T10:07:18;2.00;67.10
21493;DHT22;10908;50.690;4.400;2023-03-01T10:09:47;2.00;66.50
21493;DHT22;10908;50.690;4.400;2023-03-01T10:12:16;1.90;65.40
21493;DHT22;10908;50.690;4.400;2023-03-01T10:15:07;1.90;65.70
21493;DHT22;10908;50.690;4.400;2023-03-01T10:22:42;2.20;65.80
21493;DHT22;10908;50.690;4.400;2023-03-01T10:25:13;2.30;64.70
21493;DHT22;10908;50.690;4.400;2023-03-01T10:27:52;2.50;64.30
21493;DHT22;10908;50.690;4.400;2023-03-01T10:30:39;2.40;63.90
21493;DHT22;10908;50.690;4.400;2023-03-01T10:33:23;2.50;63.80
21493;DHT22;10908;50.690;4.400;2023-03-01T10:35:49;2.40;62.90
21493;DHT22;10908;50.690;4.400;2023-03-01T10:38:16;2.50;63.70
21493;DHT22;10908;50.690;4.400;2023-03-01T10:43:40;2.80;62.40
21493;DHT22;10908;50.690;4.400;2023-03-01T10:46:36;2.70;62.00
21493;DHT22;10908;50.690;4.400;2023-03-01T10:49:22;2.70;61.30
21493;DHT22;10908;50.690;4.400;2023-03-01T10:51:50;2.80;62.00
21493;DHT22;10908;50.690;4.400;2023-03-01T10:54:23;2.80;61.40
21493;DHT22;10908;50.690;4.400;2023-03-01T10:56:56;2.90;60.60
21493;DHT22;10908;50.690;4.400;2023-03-01T11:02:20;3.00;59.90
21493;DHT22;10908;50.690;4.400;2023-03-01T11:04:59;3.00;60.20
21493;DHT22;10908;50.690;4.400;2023-03-01T11:07:25;3.00;58.80
21493;DHT22;10908;50.690;4.400;2023-03-01T11:09:51;3.10;59.60
21493;DHT22;10908;50.690;4.400;2023-03-01T11:12:17;3.10;59.20
21493;DHT22;10908;50.690;4.400;2023-03-01T11:14:52;3.00;60.10
21493;DHT22;10908;50.690;4.400;2023-03-01T11:17:28;3.30;60.50
21493;DHT22;10908;50.690;4.400;2023-03-01T11:23:15;3.40;60.20
21493;DHT22;10908;50.690;4.400;2023-03-01T11:25:40;3.40;56.90
21493;DHT22;10908;50.690;4.400;2023-03-01T11:28:12;3.50;58.60
21493;DHT22;10908;50.690;4.400;2023-03-01T11:31:03;3.50;56.60
21493;DHT22;10908;50.690;4.400;2023-03-01T11:40:05;3.60;57.40
21493;DHT22;10908;50.690;4.400;2023-03-01T11:42:42;3.70;57.90
21493;DHT22;10908;50.690;4.400;2023-03-01T11:45:11;3.80;56.40
21493;DHT22;10908;50.690;4.400;2023-03-01T11:50:40;3.80;56.80
21493;DHT22;10908;50.690;4.400;2023-03-01T12:04:16;4.10;56.60
21493;DHT22;10908;50.690;4.400;2023-03-01T12:06:55;4.10;55.80
21493;DHT22;10908;50.690;4.400;2023-03-01T12:12:30;4.30;55.70
21493;DHT22;10908;50.690;4.400;2023-03-01T12:40:03;4.60;51.90
21493;DHT22;10908;50.690;4.400;2023-03-01T12:46:15;4.90;51.30
21493;DHT22;10908;50.690;4.400;2023-03-01T12:51:39;4.90;50.50
21493;DHT22;10908;50.690;4.400;2023-03-01T12:54:14;4.90;50.80
21493;DHT22;10908;50.690;4.400;2023-03-01T12:56:40;5.10;51.50
21493;DHT22;10908;50.690;4.400;2023-03-01T12:59:24;5.00;51.80
21493;DHT22;10908;50.690;4.400;2023-03-01T13:05:08;5.10;50.00
21493;DHT22;10908;50.690;4.400;2023-03-01T13:10:34;5.10;49.80
21493;DHT22;10908;50.690;4.400;2023-03-01T13:13:22;5.20;49.10
21493;DHT22;10908;50.690;4.400;2023-03-01T13:15:48;5.20;49.60
21493;DHT22;10908;50.690;4.400;2023-03-01T13:25:33;5.40;48.20
21493;DHT22;10908;50.690;4.400;2023-03-01T13:31:06;5.40;48.90
21493;DHT22;10908;50.690;4.400;2023-03-01T13:36:02;5.40;49.00
21493;DHT22;10908;50.690;4.400;2023-03-01T13:41:48;5.40;49.90
21493;DHT22;10908;50.690;4.400;2023-03-01T13:46:43;5.80;50.00
21493;DHT22;10908;50.690;4.400;2023-03-01T13:49:14;5.80;49.20
21493;DHT22;10908;50.690;4.400;2023-03-01T13:51:41;5.70;48.80
21493;DHT22;10908;50.690;4.400;2023-03-01T13:54:11;5.80;48.20
21493;DHT22;10908;50.690;4.400;2023-03-01T13:56:38;5.70;47.90
21493;DHT22;10908;50.690;4.400;2023-03-01T13:59:13;5.70;47.90
21493;DHT22;10908;50.690;4.400;2023-03-01T14:01:38;5.80;48.60
21493;DHT22;10908;50.690;4.400;2023-03-01T14:06:48;5.70;47.90
21493;DHT22;10908;50.690;4.400;2023-03-01T14:09:25;5.60;48.20
21493;DHT22;10908;50.690;4.400;2023-03-01T14:11:56;5.70;47.80
21493;DHT22;10908;50.690;4.400;2023-03-01T14:20:20;6.00;46.60
21493;DHT22;10908;50.690;4.400;2023-03-01T14:22:48;5.90;46.50
21493;DHT22;10908;50.690;4.400;2023-03-01T14:25:24;6.00;46.30
21493;DHT22;10908;50.690;4.400;2023-03-01T14:28:04;6.00;46.00
21493;DHT22;10908;50.690;4.400;2023-03-01T14:30:38;6.00;45.60
21493;DHT22;10908;50.690;4.400;2023-03-01T14:35:57;5.80;46.00
21493;DHT22;10908;50.690;4.400;2023-03-01T14:38:37;5.80;45.70
21493;DHT22;10908;50.690;4.400;2023-03-01T14:41:16;5.90;45.40
21493;DHT22;10908;50.690;4.400;2023-03-01T14:43:50;5.80;46.30
21493;DHT22;10908;50.690;4.400;2023-03-01T14:46:40;5.80;46.10
21493;DHT22;10908;50.690;4.400;2023-03-01T14:51:43;5.80;47.40
21493;DHT22;10908;50.690;4.400;2023-03-01T14:54:41;5.80;46.80
21493;DHT22;10908;50.690;4.400;2023-03-01T14:57:37;5.80;47.20
21493;DHT22;10908;50.690;4.400;2023-03-01T15:00:10;5.80;47.80
21493;DHT22;10908;50.690;4.400;2023-03-01T15:02:41;5.90;48.30
21493;DHT22;10908;50.690;4.400;2023-03-01T15:05:09;5.90;48.80
21493;DHT22;10908;50.690;4.400;2023-03-01T15:07:43;6.00;47.80
21493;DHT22;10908;50.690;4.400;2023-03-01T15:10:27;5.90;47.60
21493;DHT22;10908;50.690;4.400;2023-03-01T15:12:53;5.90;47.90
21493;DHT22;10908;50.690;4.400;2023-03-01T15:15:21;6.00;47.30
21493;DHT22;10908;50.690;4.400;2023-03-01T15:17:54;5.90;46.90
21493;DHT22;10908;50.690;4.400;2023-03-01T15:20:23;5.90;47.60
21493;DHT22;10908;50.690;4.400;2023-03-01T15:22:52;5.90;48.50
21493;DHT22;10908;50.690;4.400;2023-03-01T15:25:19;5.90;48.10
21493;DHT22;10908;50.690;4.400;2023-03-01T15:27:46;5.90;48.60
21493;DHT22;10908;50.690;4.400;2023-03-01T15:32:44;6.00;48.80
21493;DHT22;10908;50.690;4.400;2023-03-01T15:35:42;5.90;48.50
21493;DHT22;10908;50.690;4.400;2023-03-01T15:38:28;6.00;47.70
21493;DHT22;10908;50.690;4.400;2023-03-01T15:40:56;5.90;47.50
21493;DHT22;10908;50.690;4.400;2023-03-01T15:55:37;5.90;48.00
21493;DHT22;10908;50.690;4.400;2023-03-01T15:58:10;5.90;47.20
21493;DHT22;10908;50.690;4.400;2023-03-01T16:00:37;5.90;47.50
21493;DHT22;10908;50.690;4.400;2023-03-01T16:03:04;5.90;47.70
21493;DHT22;10908;50.690;4.400;2023-03-01T16:05:33;6.00;48.00
21493;DHT22;10908;50.690;4.400;2023-03-01T16:08:00;5.90;47.40
21493;DHT22;10908;50.690;4.400;2023-03-01T16:10:27;5.90;47.00
21493;DHT22;10908;50.690;4.400;2023-03-01T16:12:53;5.80;47.20
21493;DHT22;10908;50.690;4.400;2023-03-01T16:15:25;5.80;46.90
21493;DHT22;10908;50.690;4.400;2023-03-01T16:17:51;5.80;46.70
21493;DHT22;10908;50.690;4.400;2023-03-01T16:20:17;5.80;46.60
21493;DHT22;10908;50.690;4.400;2023-03-01T16:22:44;5.70;46.80
21493;DHT22;10908;50.690;4.400;2023-03-01T16:25:11;5.70;47.10
21493;DHT22;10908;50.690;4.400;2023-03-01T16:27:38;5.70;47.50
21493;DHT22;10908;50.690;4.400;2023-03-01T16:30:05;5.60;47.80
21493;DHT22;10908;50.690;4.400;2023-03-01T16:32:31;5.60;47.70
21493;DHT22;10908;50.690;4.400;2023-03-01T16:34:57;5.50;48.10
21493;DHT22;10908;50.690;4.400;2023-03-01T16:37:22;5.50;48.20
21493;DHT22;10908;50.690;4.400;2023-03-01T16:39:48;5.50;48.60
21493;DHT22;10908;50.690;4.400;2023-03-01T16:42:17;5.40;48.90
21493;DHT22;10908;50.690;4.400;2023-03-01T16:44:43;5.50;49.40
21493;DHT22;10908;50.690;4.400;2023-03-01T16:47:08;5.40;49.70
21493;DHT22;10908;50.690;4.400;2023-03-01T16:49:34;5.40;49.40
21493;DHT22;10908;50.690;4.400;2023-03-01T16:51:59;5.30;49.30
21493;DHT22;10908;50.690;4.400;2023-03-01T16:54:25;5.30;49.60
21493;DHT22;10908;50.690;4.400;2023-03-01T16:56:51;5.20;49.40
21493;DHT22;10908;50.690;4.400;2023-03-01T16:59:16;5.10;50.00
21493;DHT22;10908;50.690;4.400;2023-03-01T17:01:43;5.10;49.90
21493;DHT22;10908;50.690;4.400;2023-03-01T17:04:11;5.10;50.30
21493;DHT22;10908;50.690;4.400;2023-03-01T17:06:37;5.00;50.60
21493;DHT22;10908;50.690;4.400;2023-03-01T17:09:03;4.90;51.20
21493;DHT22;10908;50.690;4.400;2023-03-01T17:11:28;4.90;51.40
21493;DHT22;10908;50.690;4.400;2023-03-01T17:13:54;4.90;51.60
21493;DHT22;10908;50.690;4.400;2023-03-01T17:16:20;4.80;51.90
21493;DHT22;10908;50.690;4.400;2023-03-01T17:18:46;4.80;52.20
21493;DHT22;10908;50.690;4.400;2023-03-01T17:21:12;4.70;52.70
21493;DHT22;10908;50.690;4.400;2023-03-01T17:23:40;4.70;53.00
21493;DHT22;10908;50.690;4.400;2023-03-01T17:26:07;4.60;53.30
21493;DHT22;10908;50.690;4.400;2023-03-01T17:28:34;4.60;53.60
21493;DHT22;10908;50.690;4.400;2023-03-01T17:31:02;4.60;54.00
21493;DHT22;10908;50.690;4.400;2023-03-01T17:33:28;4.50;54.20
21493;DHT22;10908;50.690;4.400;2023-03-01T17:35:55;4.50;54.40
21493;DHT22;10908;50.690;4.400;2023-03-01T17:38:21;4.40;54.40
21493;DHT22;10908;50.690;4.400;2023-03-01T17:40:46;4.40;54.30
21493;DHT22;10908;50.690;4.400;2023-03-01T17:43:14;4.40;54.60
21493;DHT22;10908;50.690;4.400;2023-03-01T17:45:40;4.30;54.60
21493;DHT22;10908;50.690;4.400;2023-03-01T17:48:09;4.30;54.70
21493;DHT22;10908;50.690;4.400;2023-03-01T17:50:37;4.30;55.00